Time;durP1;ratioP1;P1;durP2;ratioP2;P2;SDS_P1;SDS_P2;PMS_P1;PMS_P2;Temp;Humidity;BMP_temperature;BMP_pressure;BME280_temperature;BME280_humidity;BME280_pressure;Samples;Min_cycle;Max_cycle;Signal;HPM_P1;HPM_P2
2022/12/09 00:01:06;;;;;;;7.93;4.90;;;3.10;99.90;;;;;;5057505;28;20477;-77
2022/12/09 00:03:32;;;;;;;8.87;4.10;;;3.10;99.90;;;;;;5057451;28;20414;-77
2022/12/09 00:05:58;;;;;;;5.73;4.93;;;3.00;99.90;;;;;;5056387;28;20466;-77
2022/12/09 00:08:23;;;;;;;6.80;4.30;;;3.00;99.90;;;;;;5057614;28;20167;-77
2022/12/09 00:10:49;;;;;;;10.10;4.77;;;2.90;99.90;;;;;;5057715;28;20667;-76
2022/12/09 00:13:14;;;;;;;10.80;5.33;;;2.90;99.90;;;;;;5057198;28;20191;-77
2022/12/09 00:15:41;;;;;;;13.33;6.00;;;2.90;99.90;;;;;;5055436;28;20170;-77
2022/12/09 00:18:07;;;;;;;10.30;6.10;;;2.70;99.90;;;;;;5055954;28;20191;-77
2022/12/09 00:20:33;;;;;;;9.33;5.57;;;2.70;99.90;;;;;;5056086;28;20410;-76
2022/12/09 00:22:58;;;;;;;6.80;5.30;;;2.70;99.90;;;;;;5057171;28;20498;-76
2022/12/09 00:25:24;;;;;;;6.70;5.27;;;2.60;99.90;;;;;;5057022;28;20509;-77
2022/12/09 00:27:49;;;;;;;5.30;4.37;;;2.50;99.90;;;;;;5057598;28;20647;-76
2022/12/09 00:30:15;;;;;;;10.10;4.97;;;2.50;99.90;;;;;;5055131;28;20680;-77
2022/12/09 00:32:40;;;;;;;8.53;5.47;;;2.50;99.90;;;;;;5056688;28;20174;-77
2022/12/09 00:35:07;;;;;;;11.00;5.80;;;2.50;99.90;;;;;;5055181;28;20182;-76
2022/12/09 00:37:32;;;;;;;7.13;5.73;;;2.50;99.90;;;;;;5057164;28;20197;-77
2022/12/09 00:39:58;;;;;;;7.90;5.40;;;2.50;99.90;;;;;;5056848;28;20406;-76
2022/12/09 00:42:23;;;;;;;8.20;5.00;;;2.50;99.90;;;;;;5056960;28;20193;-77
2022/12/09 00:44:49;;;;;;;6.80;5.87;;;2.50;99.90;;;;;;5056387;28;20253;-77
2022/12/09 00:47:14;;;;;;;9.10;6.00;;;2.50;99.90;;;;;;5055569;28;20265;-77
2022/12/09 00:49:40;;;;;;;10.50;4.73;;;2.50;99.90;;;;;;5054172;28;20189;-77
2022/12/09 00:52:05;;;;;;;5.93;4.47;;;2.50;99.90;;;;;;5055958;28;20224;-77
2022/12/09 00:54:31;;;;;;;6.90;4.60;;;2.50;99.90;;;;;;5056278;28;20197;-76
2022/12/09 00:56:57;;;;;;;6.93;5.07;;;2.50;99.90;;;;;;5056703;28;20171;-77
2022/12/09 00:59:22;;;;;;;10.57;5.23;;;2.60;99.90;;;;;;5055184;28;20202;-75
2022/12/09 01:01:48;;;;;;;11.30;6.67;;;2.60;99.90;;;;;;5056158;28;20191;-77
2022/12/09 01:04:13;;;;;;;10.10;6.30;;;2.60;99.90;;;;;;5055083;28;20209;-77
2022/12/09 01:06:39;;;;;;;6.83;4.50;;;2.60;99.90;;;;;;5054743;28;20175;-77
2022/12/09 01:09:04;;;;;;;7.67;5.33;;;2.70;99.90;;;;;;5054905;28;20182;-76
2022/12/09 01:11:30;;;;;;;6.53;5.07;;;2.70;99.90;;;;;;5055154;28;20178;-77
2022/12/09 01:14:01;;;;;;;7.60;5.20;;;2.70;99.90;;;;;;5053863;28;20217;-77
2022/12/09 01:16:29;;;;;;;10.30;4.43;;;2.80;99.90;;;;;;5054879;28;20206;-77
2022/12/09 01:18:58;;;;;;;6.70;4.97;;;2.80;99.90;;;;;;5054198;28;20803;-77
2022/12/09 01:21:24;;;;;;;8.40;5.60;;;2.90;99.90;;;;;;5053898;28;20415;-77
2022/12/09 01:23:50;;;;;;;8.17;6.23;;;2.90;99.90;;;;;;5055159;28;20528;-77
2022/12/09 01:26:16;;;;;;;8.30;5.53;;;2.90;99.90;;;;;;5055190;28;20450;-77
2022/12/09 01:28:41;;;;;;;7.67;5.03;;;2.90;99.90;;;;;;5055661;28;20846;-76
2022/12/09 01:31:16;;;;;;;10.53;4.83;;;2.90;99.90;;;;;;5054417;28;20644;-77
2022/12/09 01:33:42;;;;;;;6.27;5.03;;;3.00;99.90;;;;;;5053769;28;20190;-76
2022/12/09 01:36:12;;;;;;;5.77;4.67;;;3.00;99.90;;;;;;5053752;28;20425;-76
2022/12/09 01:38:38;;;;;;;10.53;5.63;;;3.00;99.90;;;;;;5053921;28;21045;-76
2022/12/09 01:41:04;;;;;;;7.60;5.80;;;3.10;99.90;;;;;;5055101;28;20429;-76
2022/12/09 01:43:29;;;;;;;6.60;4.20;;;3.20;99.90;;;;;;5054659;28;20511;-76
2022/12/09 01:45:55;;;;;;;10.40;5.37;;;3.20;99.90;;;;;;5053294;28;20560;-77
2022/12/09 01:48:30;;;;;;;8.50;4.70;;;3.10;99.90;;;;;;5055029;28;20167;-77
2022/12/09 01:51:00;;;;;;;6.23;5.27;;;3.00;99.90;;;;;;5054504;28;20163;-76
2022/12/09 01:53:30;;;;;;;8.53;5.03;;;3.00;99.90;;;;;;5054558;28;20421;-77
2022/12/09 01:55:59;;;;;;;6.67;4.50;;;3.10;99.90;;;;;;5053194;28;20417;-77
2022/12/09 01:58:25;;;;;;;8.00;5.33;;;3.10;99.90;;;;;;5054334;28;20453;-77
2022/12/09 02:00:51;;;;;;;6.20;4.90;;;3.10;99.90;;;;;;5053227;28;20428;-76
2022/12/09 02:03:17;;;;;;;17.20;5.47;;;3.10;99.90;;;;;;5053712;28;20426;-76
2022/12/09 02:05:43;;;;;;;5.97;4.30;;;3.10;99.90;;;;;;5054338;28;20159;-76
2022/12/09 02:08:12;;;;;;;8.70;5.00;;;3.10;99.90;;;;;;5054444;28;20187;-77
2022/12/09 02:11:00;;;;;;;6.70;5.40;;;3.10;99.90;;;;;;5055162;28;20927;-77
2022/12/09 02:13:50;;;;;;;6.00;4.70;;;3.20;99.90;;;;;;5053223;28;20906;-79
2022/12/09 02:16:19;;;;;;;7.63;5.23;;;3.20;99.90;;;;;;5054009;28;20764;-77
2022/12/09 02:18:57;;;;;;;7.70;5.10;;;3.20;99.90;;;;;;5054281;28;20464;-77
2022/12/09 02:21:34;;;;;;;5.30;4.03;;;3.30;99.90;;;;;;5053749;28;20401;-76
2022/12/09 02:24:07;;;;;;;5.83;4.30;;;3.30;99.90;;;;;;5054965;28;20414;-77
2022/12/09 02:26:38;;;;;;;8.93;4.83;;;3.30;99.90;;;;;;5053067;28;20441;-76
2022/12/09 02:29:27;;;;;;;8.37;5.50;;;3.30;99.90;;;;;;5054178;28;20410;-76
2022/12/09 02:32:14;;;;;;;6.47;4.37;;;3.30;99.90;;;;;;5044054;28;20429;-77
2022/12/09 02:34:44;;;;;;;6.77;5.13;;;3.40;99.90;;;;;;5053052;28;20433;-77
2022/12/09 02:37:19;;;;;;;6.07;4.13;;;3.40;99.90;;;;;;5054746;28;20409;-77
2022/12/09 02:40:04;;;;;;;7.67;4.83;;;3.40;99.90;;;;;;5054507;28;21095;-77
2022/12/09 02:42:34;;;;;;;7.93;5.83;;;3.30;99.90;;;;;;5053174;28;20930;-77
2022/12/09 02:45:03;;;;;;;7.63;5.27;;;3.40;99.90;;;;;;5054220;28;20452;-77
2022/12/09 02:47:31;;;;;;;8.27;4.77;;;3.30;99.90;;;;;;5053567;28;20482;-77
2022/12/09 02:50:01;;;;;;;8.20;4.83;;;3.30;99.90;;;;;;5052998;28;20418;-77
2022/12/09 02:52:29;;;;;;;7.17;5.57;;;3.30;99.90;;;;;;5052553;28;20413;-77
2022/12/09 02:54:57;;;;;;;7.37;4.27;;;3.20;99.90;;;;;;5052494;28;20416;-77
2022/12/09 02:57:25;;;;;;;5.20;4.40;;;3.20;99.90;;;;;;5053747;28;20546;-76
2022/12/09 02:59:51;;;;;;;6.80;4.27;;;3.20;99.90;;;;;;5053755;28;20483;-77
2022/12/09 03:02:30;;;;;;;8.47;4.30;;;3.20;99.90;;;;;;5052632;28;20770;-77
2022/12/09 03:05:21;;;;;;;6.57;4.57;;;3.20;99.90;;;;;;5052759;28;20484;-77
2022/12/09 03:08:08;;;;;;;8.00;4.77;;;3.20;99.90;;;;;;5053607;28;20398;-77
2022/12/09 03:10:49;;;;;;;5.57;4.80;;;3.20;99.90;;;;;;5054051;28;20401;-76
2022/12/09 03:13:23;;;;;;;6.40;4.53;;;3.20;99.90;;;;;;5057145;28;20470;-77
2022/12/09 03:15:56;;;;;;;8.67;4.60;;;3.20;99.90;;;;;;5056775;28;20403;-77
2022/12/09 03:18:25;;;;;;;5.63;4.30;;;3.20;99.90;;;;;;5058319;28;20437;-77
2022/12/09 03:20:51;;;;;;;7.53;5.97;;;3.20;99.90;;;;;;5058546;28;20434;-77
2022/12/09 03:23:19;;;;;;;8.90;5.33;;;3.20;99.90;;;;;;5057237;28;20430;-77
2022/12/09 03:25:49;;;;;;;8.60;5.13;;;3.20;99.90;;;;;;5057803;28;20933;-75
2022/12/09 03:28:28;;;;;;;5.40;4.90;;;3.20;99.90;;;;;;5057112;28;20417;-77
2022/12/09 03:30:55;;;;;;;8.40;5.40;;;3.10;99.90;;;;;;5057013;28;20760;-76
2022/12/09 03:33:23;;;;;;;9.70;5.30;;;3.00;99.90;;;;;;5057082;28;20494;-76
2022/12/09 03:35:59;;;;;;;7.40;5.20;;;2.90;99.90;;;;;;5058145;28;20433;-77
2022/12/09 03:38:29;;;;;;;9.27;5.27;;;3.00;99.90;;;;;;5058373;28;20456;-76
2022/12/09 03:41:27;;;;;;;7.43;4.80;;;3.00;99.90;;;;;;5057529;28;20397;-76
2022/12/09 03:44:01;;;;;;;6.67;4.33;;;2.90;99.90;;;;;;5053126;28;20437;-76
2022/12/09 03:46:28;;;;;;;8.87;5.50;;;2.80;99.90;;;;;;5056247;28;20755;-77
2022/12/09 03:48:54;;;;;;;6.30;4.40;;;2.70;99.90;;;;;;5055984;28;20441;-77
2022/12/09 03:51:33;;;;;;;15.27;9.67;;;2.70;99.90;;;;;;5057332;28;20806;-77
2022/12/09 03:54:15;;;;;;;20.83;13.50;;;2.60;99.90;;;;;;5057422;28;20432;-77
2022/12/09 03:56:46;;;;;;;6.97;6.27;;;2.50;99.90;;;;;;5056990;28;20985;-77
2022/12/09 03:59:13;;;;;;;7.13;4.47;;;2.40;99.90;;;;;;5055778;28;20872;-76
2022/12/09 04:01:41;;;;;;;8.53;4.40;;;2.30;99.90;;;;;;5056971;28;20454;-77
2022/12/09 04:04:07;;;;;;;5.67;4.43;;;2.20;99.90;;;;;;5055882;28;20886;-77
2022/12/09 04:06:33;;;;;;;7.90;5.20;;;2.10;99.90;;;;;;5055686;28;20451;-77
2022/12/09 04:08:59;;;;;;;14.43;6.97;;;2.00;99.90;;;;;;5055890;28;20525;-77
2022/12/09 04:11:24;;;;;;;6.40;4.80;;;2.00;99.90;;;;;;5055355;28;20918;-77
2022/12/09 04:13:50;;;;;;;6.30;4.67;;;1.90;99.90;;;;;;5056866;28;20202;-76
2022/12/09 04:16:16;;;;;;;8.30;5.60;;;2.00;99.90;;;;;;5055034;28;20174;-77
2022/12/09 04:18:41;;;;;;;7.17;4.70;;;2.00;99.90;;;;;;5055185;28;20679;-77
2022/12/09 04:21:09;;;;;;;5.67;4.20;;;2.10;99.90;;;;;;5056202;28;20198;-77
2022/12/09 04:23:34;;;;;;;7.23;3.90;;;2.10;99.90;;;;;;5054114;28;20186;-76
2022/12/09 04:26:00;;;;;;;7.60;4.73;;;2.20;99.90;;;;;;5055718;28;20417;-77
2022/12/09 04:28:25;;;;;;;8.37;4.23;;;2.30;99.90;;;;;;5056449;28;20170;-77
2022/12/09 04:30:51;;;;;;;6.87;4.70;;;2.30;99.90;;;;;;5054722;28;20186;-77
2022/12/09 04:33:17;;;;;;;6.47;4.67;;;2.30;99.90;;;;;;5055915;28;20190;-76
2022/12/09 04:35:42;;;;;;;7.60;4.70;;;2.30;99.90;;;;;;5054370;28;20178;-77
2022/12/09 04:38:08;;;;;;;8.63;5.90;;;2.40;99.90;;;;;;5054476;28;20191;-77
2022/12/09 04:40:33;;;;;;;9.20;5.20;;;2.40;99.90;;;;;;5054399;28;20167;-76
2022/12/09 04:42:59;;;;;;;7.33;4.83;;;2.40;99.90;;;;;;5055484;28;20187;-77
2022/12/09 04:45:24;;;;;;;9.10;5.27;;;2.40;99.90;;;;;;5055268;28;20162;-77
2022/12/09 04:47:50;;;;;;;5.23;4.73;;;2.40;99.90;;;;;;5054421;28;20186;-77
2022/12/09 04:50:16;;;;;;;6.57;4.93;;;2.40;99.90;;;;;;5055703;28;20171;-77
2022/12/09 04:52:42;;;;;;;10.53;6.60;;;2.40;99.90;;;;;;5055874;28;20166;-76
2022/12/09 04:55:08;;;;;;;13.40;4.90;;;2.40;99.90;;;;;;5055819;28;20433;-77
2022/12/09 04:57:34;;;;;;;6.93;5.20;;;2.40;99.90;;;;;;5055753;28;20465;-77
2022/12/09 05:00:00;;;;;;;6.57;5.00;;;2.40;99.90;;;;;;5056057;28;20409;-77
2022/12/09 05:02:26;;;;;;;7.40;5.03;;;2.40;99.90;;;;;;5054843;28;20839;-77
2022/12/09 05:04:51;;;;;;;6.07;4.90;;;2.40;99.90;;;;;;5055190;28;20474;-77
2022/12/09 05:07:17;;;;;;;6.07;5.03;;;2.30;99.90;;;;;;5052686;28;20697;-77
2022/12/09 05:09:43;;;;;;;9.83;5.43;;;2.30;99.90;;;;;;5052775;28;20228;-77
2022/12/09 05:12:08;;;;;;;7.83;4.80;;;2.20;99.90;;;;;;5054273;28;20601;-77
2022/12/09 05:14:34;;;;;;;5.77;5.17;;;2.20;99.90;;;;;;5052554;28;20676;-76
2022/12/09 05:17:02;;;;;;;6.90;4.23;;;2.00;99.90;;;;;;5056994;28;20194;-77
2022/12/09 05:19:27;;;;;;;10.50;6.37;;;2.00;99.90;;;;;;5058465;28;20202;-77
2022/12/09 05:21:53;;;;;;;44.13;22.13;;;1.90;99.90;;;;;;5058762;28;20414;-77
2022/12/09 05:24:18;;;;;;;13.70;7.43;;;1.90;99.90;;;;;;5058792;28;20191;-77
2022/12/09 05:26:44;;;;;;;8.00;5.90;;;1.80;99.90;;;;;;5058613;28;20175;-77
2022/12/09 05:29:09;;;;;;;8.93;6.50;;;1.80;99.90;;;;;;5059448;28;20213;-77
2022/12/09 05:31:35;;;;;;;8.07;4.80;;;1.70;99.90;;;;;;5059241;28;20235;-77
2022/12/09 05:34:00;;;;;;;10.00;6.20;;;1.60;99.90;;;;;;5058971;28;20203;-77
2022/12/09 05:36:26;;;;;;;8.53;5.17;;;1.60;99.90;;;;;;5058046;28;20171;-77
2022/12/09 05:38:52;;;;;;;12.30;5.27;;;1.60;99.90;;;;;;5056657;28;20205;-77
2022/12/09 05:41:18;;;;;;;12.37;6.00;;;1.70;99.90;;;;;;5057095;28;20178;-77
2022/12/09 05:43:45;;;;;;;10.77;6.00;;;1.70;99.90;;;;;;5054814;28;20463;-77
2022/12/09 05:46:12;;;;;;;8.20;6.80;;;1.80;99.90;;;;;;5059538;28;20448;-77
2022/12/09 05:48:38;;;;;;;11.00;6.43;;;1.90;99.90;;;;;;5053846;28;20414;-76
2022/12/09 05:51:06;;;;;;;8.10;5.90;;;1.90;99.90;;;;;;5052925;28;20405;-76
2022/12/09 05:53:32;;;;;;;7.40;4.23;;;2.00;99.90;;;;;;5052451;28;20273;-76
2022/12/09 05:55:58;;;;;;;7.70;4.90;;;2.10;99.90;;;;;;5052471;28;20982;-76
2022/12/09 05:58:23;;;;;;;8.50;5.83;;;2.10;99.90;;;;;;5052688;28;20209;-76
2022/12/09 06:00:49;;;;;;;7.20;4.57;;;2.10;99.90;;;;;;5052581;28;20640;-75
2022/12/09 06:03:14;;;;;;;8.07;5.07;;;2.00;99.90;;;;;;5051348;28;20726;-76
2022/12/09 06:05:40;;;;;;;9.17;4.67;;;1.90;99.90;;;;;;5051714;28;20167;-77
2022/12/09 06:08:06;;;;;;;10.23;6.10;;;1.80;99.90;;;;;;5058523;28;20525;-77
2022/12/09 06:10:32;;;;;;;7.10;5.90;;;1.60;99.90;;;;;;5051856;28;20417;-76
2022/12/09 06:12:57;;;;;;;8.17;5.40;;;1.50;99.90;;;;;;5052386;28;20190;-78
2022/12/09 06:15:24;;;;;;;7.50;5.67;;;1.40;99.90;;;;;;5051008;28;20261;-76
2022/12/09 06:17:49;;;;;;;6.47;4.67;;;1.30;99.90;;;;;;5052486;28;20733;-77
2022/12/09 06:20:16;;;;;;;9.47;5.73;;;1.20;99.90;;;;;;5058994;28;20402;-78
2022/12/09 06:22:41;;;;;;;7.60;5.40;;;1.10;99.90;;;;;;5057821;28;20170;-78
2022/12/09 06:25:07;;;;;;;7.03;4.23;;;1.00;99.90;;;;;;5057273;28;20428;-78
2022/12/09 06:27:32;;;;;;;8.00;5.07;;;0.90;99.90;;;;;;5054763;28;20174;-77
2022/12/09 06:29:58;;;;;;;5.73;4.60;;;0.80;99.90;;;;;;5057161;28;20533;-76
2022/12/09 06:32:23;;;;;;;5.73;3.90;;;0.80;99.90;;;;;;5059860;28;20643;-78
2022/12/09 06:34:49;;;;;;;7.43;5.20;;;0.70;99.90;;;;;;5057514;28;20232;-78
2022/12/09 06:37:15;;;;;;;6.27;4.80;;;0.70;99.90;;;;;;5051940;28;20167;-75
2022/12/09 06:39:41;;;;;;;7.30;5.23;;;0.60;99.90;;;;;;5051995;28;20268;-76
2022/12/09 06:42:06;;;;;;;12.33;5.50;;;0.50;99.90;;;;;;5052486;28;20900;-76
2022/12/09 06:44:32;;;;;;;11.33;6.23;;;0.50;99.90;;;;;;5051681;28;20206;-76
2022/12/09 06:46:58;;;;;;;8.60;5.93;;;0.40;99.90;;;;;;5051123;28;20158;-76
2022/12/09 06:49:23;;;;;;;10.80;6.00;;;0.40;99.90;;;;;;5051925;28;20640;-76
2022/12/09 06:51:49;;;;;;;8.60;5.60;;;0.30;99.90;;;;;;5050579;28;20980;-76
2022/12/09 06:54:15;;;;;;;9.00;5.37;;;0.20;99.90;;;;;;5051634;28;20198;-77
2022/12/09 06:56:40;;;;;;;7.63;4.00;;;0.20;99.90;;;;;;5051798;28;20577;-76
2022/12/09 06:59:08;;;;;;;11.77;5.47;;;0.20;99.90;;;;;;5051829;28;20562;-76
2022/12/09 07:01:33;;;;;;;6.50;5.07;;;0.20;99.90;;;;;;5050306;28;20170;-76
2022/12/09 07:03:59;;;;;;;5.40;3.77;;;0.10;99.90;;;;;;5051688;28;20429;-76
2022/12/09 07:06:37;;;;;;;8.70;5.87;;;0.10;99.90;;;;;;5050249;28;20223;-76
2022/12/09 07:09:05;;;;;;;5.60;4.37;;;0.10;99.90;;;;;;5051785;28;20217;-76
2022/12/09 07:11:31;;;;;;;5.53;4.20;;;0.20;99.90;;;;;;5051770;28;20409;-76
2022/12/09 07:13:56;;;;;;;6.47;5.27;;;0.10;99.90;;;;;;5051634;28;20565;-76
2022/12/09 07:16:22;;;;;;;9.07;5.23;;;0.10;99.90;;;;;;5051325;28;20268;-76
2022/12/09 07:18:48;;;;;;;8.27;6.20;;;0.10;99.90;;;;;;5050224;28;20201;-76
2022/12/09 07:21:17;;;;;;;8.13;5.43;;;0.10;99.90;;;;;;5054161;28;20171;-76
2022/12/09 07:23:43;;;;;;;9.33;5.03;;;0.10;99.90;;;;;;5052180;28;20304;-76
2022/12/09 07:26:09;;;;;;;19.40;5.60;;;0.10;99.90;;;;;;5051402;28;20772;-76
2022/12/09 07:28:37;;;;;;;10.90;5.90;;;0.20;99.90;;;;;;5051669;28;20495;-76
2022/12/09 07:31:03;;;;;;;11.03;6.43;;;0.10;99.90;;;;;;5051419;28;20175;-76
2022/12/09 07:33:29;;;;;;;8.30;5.53;;;0.20;99.90;;;;;;5051317;28;20948;-77
2022/12/09 07:35:56;;;;;;;7.93;5.70;;;0.10;99.90;;;;;;5052474;28;20459;-77
2022/12/09 07:38:23;;;;;;;10.90;6.13;;;0.10;99.90;;;;;;5053203;28;20543;-77
2022/12/09 07:40:48;;;;;;;6.77;5.07;;;0.10;99.90;;;;;;5052293;28;20910;-76
2022/12/09 07:43:14;;;;;;;13.60;6.33;;;0.10;99.90;;;;;;5051404;28;20439;-76
2022/12/09 07:45:39;;;;;;;8.07;5.50;;;0.10;99.90;;;;;;5049794;28;20171;-76
2022/12/09 07:48:07;;;;;;;8.07;5.40;;;0.10;99.90;;;;;;5051379;28;20582;-76
2022/12/09 07:50:33;;;;;;;8.93;5.53;;;0.10;99.90;;;;;;5051376;28;20215;-76
2022/12/09 07:52:58;;;;;;;6.10;4.83;;;0.20;99.90;;;;;;5051259;28;20516;-75
2022/12/09 07:55:24;;;;;;;7.70;5.40;;;0.20;99.90;;;;;;5050914;28;20484;-76
2022/12/09 07:57:50;;;;;;;12.97;6.20;;;0.30;99.90;;;;;;5049778;28;20202;-76
2022/12/09 08:00:16;;;;;;;8.33;5.90;;;0.30;99.90;;;;;;5055316;28;20198;-76
2022/12/09 08:02:41;;;;;;;7.30;5.40;;;0.40;99.90;;;;;;5055544;28;20287;-77
2022/12/09 08:05:07;;;;;;;11.30;7.30;;;0.50;99.90;;;;;;5055370;28;20402;-77
2022/12/09 08:07:32;;;;;;;9.07;6.17;;;0.50;99.90;;;;;;5055894;28;20224;-77
2022/12/09 08:09:58;;;;;;;19.80;6.50;;;0.60;99.90;;;;;;5061602;28;20167;-78
2022/12/09 08:12:24;;;;;;;9.00;6.73;;;0.70;99.90;;;;;;5055169;28;20273;-78
2022/12/09 08:14:49;;;;;;;6.40;5.40;;;0.80;99.90;;;;;;5054231;28;20230;-78
2022/12/09 08:17:15;;;;;;;9.67;6.07;;;0.80;99.90;;;;;;5056272;28;20178;-78
2022/12/09 08:19:41;;;;;;;10.00;7.17;;;0.90;99.90;;;;;;5055275;28;20198;-78
2022/12/09 08:22:06;;;;;;;11.73;6.50;;;1.00;99.90;;;;;;5055476;28;20503;-78
2022/12/09 08:24:32;;;;;;;12.83;6.10;;;1.00;99.90;;;;;;5054829;28;20190;-78
2022/12/09 08:26:58;;;;;;;8.87;6.80;;;1.10;99.90;;;;;;5055645;28;20216;-78
2022/12/09 08:29:24;;;;;;;9.37;5.47;;;1.10;99.90;;;;;;5055080;28;20179;-78
2022/12/09 08:31:49;;;;;;;8.37;6.00;;;1.20;99.90;;;;;;5054444;28;20437;-78
2022/12/09 08:34:15;;;;;;;10.50;7.17;;;1.20;99.90;;;;;;5054194;28;20719;-77
2022/12/09 08:36:41;;;;;;;8.60;5.90;;;1.30;99.90;;;;;;5054349;28;20198;-77
2022/12/09 08:39:07;;;;;;;11.33;6.90;;;1.30;99.90;;;;;;5052740;28;20577;-76
2022/12/09 08:41:34;;;;;;;9.60;5.40;;;1.30;99.90;;;;;;5054293;28;20406;-76
2022/12/09 08:44:06;;;;;;;13.17;7.87;;;1.40;99.90;;;;;;5054039;28;20559;-78
2022/12/09 08:46:33;;;;;;;12.10;7.90;;;1.50;99.90;;;;;;5053963;28;20388;-76
2022/12/09 08:49:00;;;;;;;11.10;8.67;;;1.60;99.90;;;;;;5054035;28;20416;-76
2022/12/09 08:51:27;;;;;;;13.20;8.33;;;1.70;99.90;;;;;;5052839;28;20504;-76
2022/12/09 08:53:52;;;;;;;20.80;8.10;;;1.90;99.90;;;;;;5053959;28;20433;-76
2022/12/09 08:56:18;;;;;;;18.00;9.03;;;1.90;99.90;;;;;;5053740;28;20420;-76
2022/12/09 08:58:43;;;;;;;11.37;8.37;;;2.00;99.90;;;;;;5054027;28;20205;-76
2022/12/09 09:01:23;;;;;;;13.57;7.93;;;2.10;99.90;;;;;;5052561;28;20171;-76
2022/12/09 09:03:49;;;;;;;13.20;7.67;;;2.20;99.90;;;;;;5053754;28;20273;-76
2022/12/09 09:06:16;;;;;;;14.70;8.70;;;2.30;99.90;;;;;;5052203;28;20922;-76
2022/12/09 09:08:42;;;;;;;15.20;8.63;;;2.30;99.90;;;;;;5053796;28;20767;-76
2022/12/09 09:11:12;;;;;;;27.87;10.60;;;2.50;99.90;;;;;;5051736;28;20413;-77
2022/12/09 09:13:39;;;;;;;14.90;9.70;;;2.60;99.90;;;;;;5053531;28;20432;-76
2022/12/09 09:16:09;;;;;;;12.07;7.20;;;2.80;99.90;;;;;;5053245;28;20519;-77
2022/12/09 09:18:35;;;;;;;12.70;9.90;;;2.90;99.90;;;;;;5054913;28;20562;-78
2022/12/09 09:21:00;;;;;;;12.23;8.80;;;2.90;99.90;;;;;;5054387;28;20910;-78
2022/12/09 09:23:26;;;;;;;9.10;7.13;;;3.00;99.90;;;;;;5055441;28;20197;-77
2022/12/09 09:25:51;;;;;;;18.30;10.20;;;3.20;99.90;;;;;;5059076;28;20185;-77
2022/12/09 09:28:17;;;;;;;13.80;8.53;;;3.20;99.90;;;;;;5060380;28;20209;-78
2022/12/09 09:30:42;;;;;;;14.17;7.47;;;3.40;99.90;;;;;;5055649;28;20214;-76
2022/12/09 09:33:08;;;;;;;10.90;8.73;;;3.50;99.90;;;;;;5053100;28;20610;-76
2022/12/09 09:35:33;;;;;;;10.13;7.70;;;3.60;99.90;;;;;;5052850;28;20201;-77
2022/12/09 09:37:59;;;;;;;11.27;8.10;;;3.70;99.90;;;;;;5052074;28;20239;-76
2022/12/09 09:40:28;;;;;;;26.80;7.80;;;3.70;99.90;;;;;;5053045;28;20250;-77
2022/12/09 09:42:56;;;;;;;13.73;8.07;;;3.80;99.90;;;;;;5052926;28;20656;-76
2022/12/09 09:45:23;;;;;;;8.30;7.50;;;3.90;99.90;;;;;;5052661;28;20863;-77
2022/12/09 09:47:54;;;;;;;12.43;8.17;;;3.80;99.90;;;;;;5058767;28;20492;-77
2022/12/09 09:50:36;;;;;;;11.53;8.23;;;3.90;99.90;;;;;;5060262;28;20409;-78
2022/12/09 09:53:20;;;;;;;11.53;6.20;;;3.80;99.90;;;;;;5058426;28;20433;-79
2022/12/09 09:55:50;;;;;;;7.80;6.40;;;3.80;99.90;;;;;;5055851;28;20417;-78
2022/12/09 09:58:29;;;;;;;9.23;6.90;;;3.90;99.90;;;;;;5054512;28;20532;-78
2022/12/09 10:01:00;;;;;;;8.37;5.90;;;4.00;99.90;;;;;;5053002;28;20450;-76
2022/12/09 10:03:25;;;;;;;10.67;7.37;;;4.10;99.90;;;;;;5052917;28;20421;-78
2022/12/09 10:05:59;;;;;;;12.57;7.43;;;4.10;99.90;;;;;;5051926;28;20417;-78
2022/12/09 10:08:58;;;;;;;11.50;8.30;;;4.10;99.90;;;;;;5051281;28;20167;-76
2022/12/09 10:11:39;;;;;;;10.70;8.77;;;4.30;99.90;;;;;;5051867;28;20416;-76
2022/12/09 10:14:19;;;;;;;8.93;6.50;;;4.30;99.90;;;;;;5050842;28;20441;-77
2022/12/09 10:17:06;;;;;;;14.53;7.50;;;4.30;99.90;;;;;;5050770;28;20413;-76
2022/12/09 10:19:39;;;;;;;9.27;7.40;;;4.40;99.90;;;;;;5052351;28;20472;-76
2022/12/09 10:22:12;;;;;;;18.10;7.03;;;4.40;99.90;;;;;;5051613;28;20473;-76
2022/12/09 10:24:46;;;;;;;11.40;7.10;;;4.50;99.90;;;;;;5051691;28;20563;-76
2022/12/09 10:27:24;;;;;;;10.30;7.70;;;4.50;99.90;;;;;;5051884;28;20757;-77
2022/12/09 10:29:58;;;;;;;8.87;7.00;;;4.50;99.90;;;;;;5050459;28;20817;-76
2022/12/09 10:32:28;;;;;;;11.40;7.53;;;4.50;99.90;;;;;;5051428;28;20463;-77
2022/12/09 10:34:53;;;;;;;11.60;8.20;;;4.60;99.90;;;;;;5052376;28;20401;-77
2022/12/09 10:37:23;;;;;;;10.57;8.20;;;4.70;99.90;;;;;;5057996;28;20409;-78
2022/12/09 10:39:54;;;;;;;13.60;8.40;;;4.70;99.90;;;;;;5055839;28;20788;-76
2022/12/09 10:45:06;;;;;;;14.77;7.70;;;4.90;99.90;;;;;;5051730;28;20745;-78
2022/12/09 10:47:32;;;;;;;12.53;7.53;;;5.00;99.90;;;;;;5051667;28;20424;-77
2022/12/09 10:49:58;;;;;;;8.37;6.00;;;4.90;99.90;;;;;;5051441;28;20511;-77
2022/12/09 10:52:30;;;;;;;15.07;7.40;;;5.10;99.90;;;;;;5051823;28;20166;-76
2022/12/09 10:54:56;;;;;;;17.20;8.23;;;5.10;99.90;;;;;;5051211;28;20559;-77
2022/12/09 10:57:25;;;;;;;13.53;7.83;;;5.30;99.90;;;;;;5051234;28;20421;-77
2022/12/09 11:00:06;;;;;;;13.00;7.83;;;5.30;99.90;;;;;;5050800;28;20417;-77
2022/12/09 11:02:33;;;;;;;12.27;7.93;;;5.50;99.90;;;;;;5053341;28;20389;-77
2022/12/09 11:05:24;;;;;;;11.00;7.00;;;5.70;99.90;;;;;;5056871;28;20451;-76
2022/12/09 11:07:51;;;;;;;9.60;7.37;;;6.00;99.90;;;;;;5058731;28;20405;-78
2022/12/09 11:10:20;;;;;;;10.33;7.00;;;6.30;99.90;;;;;;5058582;28;20436;-78
2022/12/09 11:12:51;;;;;;;11.77;6.93;;;6.40;99.90;;;;;;5058304;28;20427;-79
2022/12/09 11:15:52;;;;;;;8.33;6.03;;;6.50;99.90;;;;;;5058814;28;20483;-78
2022/12/09 11:18:20;;;;;;;8.87;6.70;;;6.70;99.90;;;;;;5056133;28;20467;-78
2022/12/09 11:21:00;;;;;;;6.80;5.90;;;6.90;99.90;;;;;;5057960;28;20413;-78
2022/12/09 11:23:27;;;;;;;7.47;6.50;;;7.00;99.90;;;;;;5057890;28;20468;-78
2022/12/09 11:25:54;;;;;;;8.90;7.10;;;7.10;99.90;;;;;;5059182;28;20405;-78
2022/12/09 11:28:27;;;;;;;8.27;6.40;;;7.20;99.90;;;;;;5058508;28;20417;-77
2022/12/09 11:30:55;;;;;;;9.63;7.13;;;7.20;99.90;;;;;;5057656;28;20475;-77
2022/12/09 11:33:36;;;;;;;11.30;6.70;;;7.30;99.90;;;;;;5059930;28;20810;-78
2022/12/09 11:36:03;;;;;;;7.97;6.67;;;7.30;99.90;;;;;;5063182;28;20397;-78
2022/12/09 11:38:42;;;;;;;12.10;6.60;;;7.40;99.90;;;;;;5062786;28;20666;-78
2022/12/09 11:41:08;;;;;;;8.73;6.60;;;7.40;99.90;;;;;;5062325;28;20432;-78
2022/12/09 11:43:55;;;;;;;10.60;6.37;;;7.60;99.90;;;;;;5061769;28;20422;-77
2022/12/09 11:46:27;;;;;;;11.83;6.60;;;7.80;99.90;;;;;;5061540;28;20174;-78
2022/12/09 11:49:00;;;;;;;9.27;7.40;;;7.60;99.90;;;;;;5062629;28;20458;-78
2022/12/09 11:51:31;;;;;;;10.23;7.47;;;7.80;99.90;;;;;;5063342;28;20427;-78
2022/12/09 11:54:09;;;;;;;11.00;7.30;;;7.90;99.90;;;;;;5061826;28;20425;-78
2022/12/09 11:56:37;;;;;;;10.10;7.07;;;7.90;99.90;;;;;;5062704;28;20404;-78
2022/12/09 11:59:17;;;;;;;13.20;7.87;;;7.80;99.90;;;;;;5061149;28;20986;-78
2022/12/09 12:01:48;;;;;;;12.67;8.10;;;8.00;99.90;;;;;;5060545;28;20463;-78
2022/12/09 12:04:18;;;;;;;13.83;9.77;;;7.30;99.90;;;;;;5060871;28;20488;-78
2022/12/09 12:06:50;;;;;;;13.30;8.40;;;7.40;99.90;;;;;;5061058;28;20413;-77
2022/12/09 12:09:33;;;;;;;12.30;6.80;;;7.70;99.90;;;;;;5061654;28;20406;-78
2022/12/09 12:12:05;;;;;;;9.70;7.13;;;7.80;99.90;;;;;;5061436;28;20500;-78
2022/12/09 12:14:34;;;;;;;13.63;9.20;;;8.10;99.90;;;;;;5060268;28;20439;-78
2022/12/09 12:17:23;;;;;;;10.40;7.67;;;8.20;99.90;;;;;;5061823;28;20444;-78
2022/12/09 12:19:51;;;;;;;9.30;7.77;;;8.40;99.90;;;;;;5060812;28;20457;-77
2022/12/09 12:23:03;;;;;;;15.07;8.80;;;8.50;99.90;;;;;;5061246;28;20409;-78
2022/12/09 12:25:44;;;;;;;16.67;8.23;;;8.40;99.90;;;;;;5061576;28;20423;-77
2022/12/09 12:28:39;;;;;;;11.30;8.20;;;8.50;99.90;;;;;;5060643;28;20417;-78
2022/12/09 12:31:33;;;;;;;12.30;7.60;;;8.60;99.90;;;;;;5061282;28;20421;-77
2022/12/09 12:34:17;;;;;;;10.83;7.77;;;8.50;99.90;;;;;;5060428;28;20434;-78
2022/12/09 12:36:54;;;;;;;13.03;8.00;;;8.20;99.90;;;;;;5059794;28;20420;-79
2022/12/09 12:39:45;;;;;;;13.20;7.43;;;8.20;99.90;;;;;;5060933;28;20980;-78
2022/12/09 12:42:32;;;;;;;10.87;7.80;;;8.40;99.90;;;;;;5056778;28;20421;-78
2022/12/09 12:48:24;;;;;;;14.80;8.87;;;8.80;99.90;;;;;;5061637;28;21101;-78
2022/12/09 12:50:55;;;;;;;12.47;8.43;;;9.50;99.90;;;;;;5039864;28;20418;-78
2022/12/09 12:54:07;;;;;;;11.93;8.30;;;10.60;99.90;;;;;;5060217;28;20429;-78
2022/12/09 12:56:46;;;;;;;10.27;7.80;;;12.10;99.90;;;;;;5060970;28;20424;-79
2022/12/09 12:59:29;;;;;;;12.90;7.87;;;13.00;99.90;;;;;;5061908;28;20476;-77
2022/12/09 13:02:34;;;;;;;11.27;7.70;;;14.20;98.60;;;;;;5058449;28;20829;-79
2022/12/09 13:05:22;;;;;;;12.90;8.47;;;14.10;92.70;;;;;;5055821;28;20475;-78
2022/12/09 13:07:54;;;;;;;10.97;7.97;;;15.10;91.00;;;;;;5057377;28;20406;-79
2022/12/09 13:10:38;;;;;;;18.93;8.73;;;15.60;86.20;;;;;;5058506;28;20789;-79
2022/12/09 13:13:23;;;;;;;12.30;9.57;;;15.40;81.80;;;;;;5055555;28;20429;-79